Time;durP1;ratioP1;P1;durP2;ratioP2;P2;SDS_P1;SDS_P2;PMS_P1;PMS_P2;Temp;Humidity;BMP_temperature;BMP_pressure;BME280_temperature;BME280_humidity;BME280_pressure;Samples;Min_cycle;Max_cycle;Signal;HPM_P1;HPM_P2
2022/12/16 00:02:15;;;;;;;99.57;28.80;;;-2.50;99.90;;;;;;4390531;28;661890;-68
2022/12/16 00:05:02;;;;;;;99.87;29.00;;;-2.50;99.90;;;;;;4409560;28;661889;-67
2022/12/16 00:07:51;;;;;;;92.10;28.47;;;-2.50;99.90;;;;;;4409613;28;660914;-68
2022/12/16 00:10:52;;;;;;;327.87;36.07;;;-2.50;99.90;;;;;;4412251;28;660783;-67
2022/12/16 00:13:40;;;;;;;89.55;28.40;;;-2.50;99.90;;;;;;4385846;28;661549;-67
2022/12/16 00:16:27;;;;;;;95.07;30.13;;;-2.40;99.90;;;;;;4408614;28;661638;-68
2022/12/16 00:19:15;;;;;;;93.70;29.97;;;-2.40;99.90;;;;;;4409570;28;660911;-69
2022/12/16 00:22:02;;;;;;;91.20;30.23;;;-2.40;99.90;;;;;;4415443;28;662063;-67
2022/12/16 00:24:51;;;;;;;93.37;29.83;;;-2.40;99.90;;;;;;4410283;28;660970;-66
2022/12/16 00:27:38;;;;;;;95.93;29.67;;;-2.40;99.90;;;;;;4384154;28;661993;-67
2022/12/16 00:30:25;;;;;;;92.97;30.33;;;-2.30;99.90;;;;;;4388852;28;660777;-68
2022/12/16 00:33:12;;;;;;;97.47;31.47;;;-2.30;99.90;;;;;;4412092;28;661182;-67
2022/12/16 00:35:59;;;;;;;88.10;30.30;;;-2.30;99.90;;;;;;4407177;28;660935;-66
2022/12/16 00:38:46;;;;;;;97.43;31.67;;;-2.30;99.90;;;;;;4389023;28;660670;-67
2022/12/16 00:41:35;;;;;;;104.67;32.10;;;-2.30;99.90;;;;;;4407209;28;661360;-67
2022/12/16 00:44:22;;;;;;;82.75;28.05;;;-2.30;99.90;;;;;;4367743;28;662647;-67
2022/12/16 00:47:09;;;;;;;98.07;32.47;;;-2.30;99.90;;;;;;4393523;28;661295;-67
2022/12/16 00:49:56;;;;;;;106.87;33.93;;;-2.30;99.90;;;;;;4374357;28;660774;-67
2022/12/16 00:52:44;;;;;;;85.97;30.00;;;-2.30;99.90;;;;;;4387529;28;661409;-66
2022/12/16 00:55:31;;;;;;;92.97;31.13;;;-2.30;99.90;;;;;;4367068;28;662330;-68
2022/12/16 00:58:20;;;;;;;85.97;31.90;;;-2.30;99.90;;;;;;4387222;28;660803;-67
2022/12/16 01:01:08;;;;;;;91.63;31.40;;;-2.40;99.90;;;;;;4366408;28;661422;-68
2022/12/16 01:03:56;;;;;;;97.73;31.80;;;-2.40;99.90;;;;;;4370733;28;660640;-68
2022/12/16 01:06:43;;;;;;;91.30;31.77;;;-2.40;99.90;;;;;;4392972;28;660761;-68
2022/12/16 01:09:30;;;;;;;92.17;31.37;;;-2.40;99.90;;;;;;4371848;28;661010;-67
2022/12/16 01:12:17;;;;;;;88.40;29.47;;;-2.40;99.90;;;;;;4394455;28;661512;-67
2022/12/16 01:15:08;;;;;;;88.90;31.93;;;-2.40;99.90;;;;;;4396939;28;660691;-69
2022/12/16 01:17:55;;;;;;;97.67;32.67;;;-2.40;99.90;;;;;;4376757;28;660961;-67
2022/12/16 01:20:43;;;;;;;92.53;32.07;;;-2.40;99.90;;;;;;4395912;28;661826;-67
2022/12/16 01:23:30;;;;;;;145.67;34.87;;;-2.40;99.90;;;;;;4385781;28;661669;-69
2022/12/16 01:26:17;;;;;;;91.90;32.43;;;-2.30;99.90;;;;;;4398457;28;662576;-68
2022/12/16 01:29:04;;;;;;;96.43;35.70;;;-2.30;99.90;;;;;;4390944;28;661448;-67
2022/12/16 01:31:53;;;;;;;96.00;33.87;;;-2.30;99.90;;;;;;4376808;28;661470;-67
2022/12/16 01:34:40;;;;;;;94.40;32.70;;;-2.30;99.90;;;;;;4369745;28;661128;-68
2022/12/16 01:37:27;;;;;;;92.67;32.80;;;-2.30;99.90;;;;;;4397385;28;661622;-68
2022/12/16 01:40:16;;;;;;;93.20;32.20;;;-2.30;99.90;;;;;;4389104;28;661180;-67
2022/12/16 01:43:08;;;;;;;98.40;32.77;;;-2.30;99.90;;;;;;4366901;28;661689;-67
2022/12/16 01:45:57;;;;;;;88.47;31.10;;;-2.30;99.90;;;;;;4360237;28;661037;-68
2022/12/16 01:48:48;;;;;;;88.80;31.57;;;-2.30;99.90;;;;;;4388769;28;660973;-67
2022/12/16 01:51:36;;;;;;;101.50;35.13;;;-2.30;99.90;;;;;;4352925;28;661007;-69
2022/12/16 01:54:25;;;;;;;97.73;32.33;;;-2.40;99.90;;;;;;4386631;28;662885;-67
2022/12/16 01:57:13;;;;;;;98.73;32.47;;;-2.40;99.90;;;;;;4368483;28;661832;-68
2022/12/16 02:00:00;;;;;;;91.80;30.83;;;-2.40;99.90;;;;;;4368322;28;660600;-67
2022/12/16 02:02:48;;;;;;;95.37;32.40;;;-2.40;99.90;;;;;;4393687;28;661654;-67
2022/12/16 02:05:38;;;;;;;94.83;34.53;;;-2.40;99.90;;;;;;4381502;28;660886;-69
2022/12/16 02:08:25;;;;;;;107.68;36.47;;;-2.40;99.90;;;;;;4373361;28;661811;-68
2022/12/16 02:11:22;;;;;;;102.73;35.50;;;-2.40;99.90;;;;;;4389531;28;662242;-66
2022/12/16 02:14:40;;;;;;;94.90;32.42;;;-2.40;99.90;;;;;;4368206;28;661393;-67
2022/12/16 02:17:31;;;;;;;94.17;33.33;;;-2.40;99.90;;;;;;4341877;28;660702;-67
2022/12/16 02:21:05;;;;;;;107.10;35.03;;;-2.40;99.90;;;;;;4373578;28;661065;-66
2022/12/16 02:24:24;;;;;;;94.80;32.50;;;-2.40;99.90;;;;;;4365448;28;662170;-66
2022/12/16 02:27:31;;;;;;;96.28;33.90;;;-2.40;99.90;;;;;;4343411;28;661087;-67
2022/12/16 02:30:42;;;;;;;103.40;35.07;;;-2.40;99.90;;;;;;4372818;28;660609;-66
2022/12/16 02:33:34;;;;;;;91.70;31.80;;;-2.40;99.90;;;;;;4368198;28;662829;-66
2022/12/16 02:36:36;;;;;;;77.27;27.27;;;-2.40;99.90;;;;;;4368982;28;660919;-68
2022/12/16 02:39:25;;;;;;;83.13;27.73;;;-2.40;99.90;;;;;;4365903;28;661648;-67
2022/12/16 02:42:15;;;;;;;83.40;30.83;;;-2.40;99.90;;;;;;4367847;28;661491;-66
2022/12/16 02:45:03;;;;;;;78.13;29.63;;;-2.40;99.90;;;;;;4385352;28;662026;-66
2022/12/16 02:47:52;;;;;;;68.73;27.10;;;-2.50;99.90;;;;;;4386631;28;660842;-67
2022/12/16 02:50:40;;;;;;;79.78;28.73;;;-2.50;99.90;;;;;;4408779;28;661374;-66
2022/12/16 02:53:27;;;;;;;103.73;35.57;;;-2.50;99.90;;;;;;4386869;28;661718;-66
2022/12/16 02:56:22;;;;;;;73.77;27.67;;;-2.50;99.90;;;;;;4403322;28;662039;-67
2022/12/16 02:59:15;;;;;;;75.30;28.53;;;-2.50;99.90;;;;;;4380692;28;660990;-67
2022/12/16 03:02:06;;;;;;;74.40;26.53;;;-2.50;99.90;;;;;;4821943;28;661404;-67
2022/12/16 03:04:56;;;;;;;67.43;25.77;;;-2.50;99.90;;;;;;4407209;28;661040;-66
2022/12/16 03:07:43;;;;;;;70.72;27.10;;;-2.50;99.90;;;;;;4384607;28;661971;-66
2022/12/16 03:10:40;;;;;;;77.07;27.30;;;-2.50;99.90;;;;;;4386498;28;662322;-67
2022/12/16 03:13:28;;;;;;;77.37;28.50;;;-2.50;99.90;;;;;;4362882;28;661364;-67
2022/12/16 03:16:17;;;;;;;78.00;27.87;;;-2.40;99.90;;;;;;4389191;28;660532;-67
2022/12/16 03:19:06;;;;;;;70.23;24.50;;;-2.50;99.90;;;;;;4408340;28;660472;-66
2022/12/16 03:21:58;;;;;;;70.97;26.90;;;-2.40;99.90;;;;;;4388585;28;661577;-67
2022/12/16 03:24:45;;;;;;;64.67;25.47;;;-2.50;99.90;;;;;;4391031;28;662326;-68
2022/12/16 03:27:34;;;;;;;71.10;25.93;;;-2.40;99.90;;;;;;4403513;28;661149;-67
2022/12/16 03:30:24;;;;;;;76.23;28.53;;;-2.40;99.90;;;;;;4384949;28;660721;-66
2022/12/16 03:33:13;;;;;;;71.83;27.93;;;-2.40;99.90;;;;;;4384891;28;660659;-67
2022/12/16 03:36:02;;;;;;;67.47;26.10;;;-2.40;99.90;;;;;;4384096;28;660756;-66
2022/12/16 03:38:50;;;;;;;72.03;26.93;;;-2.30;99.90;;;;;;4403987;28;660907;-67
2022/12/16 03:41:37;;;;;;;66.03;24.93;;;-2.40;99.90;;;;;;4386419;28;661858;-67
2022/12/16 03:44:25;;;;;;;66.40;25.60;;;-2.40;99.90;;;;;;4406130;28;660695;-68
2022/12/16 03:47:13;;;;;;;64.43;24.87;;;-2.40;99.90;;;;;;4407685;28;660859;-66
2022/12/16 03:50:00;;;;;;;61.93;25.53;;;-2.40;99.90;;;;;;4383505;28;661257;-67
2022/12/16 03:52:48;;;;;;;148.20;37.30;;;-2.40;99.90;;;;;;4406377;28;661496;-66
2022/12/16 03:55:36;;;;;;;129.93;41.20;;;-2.40;99.90;;;;;;4403783;28;661547;-68
2022/12/16 03:58:24;;;;;;;70.23;25.53;;;-2.40;99.90;;;;;;4405593;28;661958;-68
2022/12/16 04:01:11;;;;;;;66.67;25.77;;;-2.30;99.90;;;;;;4383258;28;660588;-68
2022/12/16 04:03:58;;;;;;;62.40;24.57;;;-2.40;99.90;;;;;;4408022;28;661511;-66
2022/12/16 04:07:18;;;;;;;53.60;21.47;;;-2.40;99.90;;;;;;4386323;28;660738;-68
2022/12/16 04:09:52;;;;;;;61.87;26.07;;;-2.40;99.90;;;;;;4359482;28;661760;-67
2022/12/16 04:25:02;;;;;;;57.10;23.13;;;-2.30;99.90;;;;;;4376260;28;660337;-68
2022/12/16 04:27:51;;;;;;;50.37;21.43;;;-2.30;99.90;;;;;;4406476;28;660533;-68
2022/12/16 04:30:39;;;;;;;46.60;19.53;;;-2.30;99.90;;;;;;4407426;28;661986;-67
